Time;durP1;ratioP1;P1;durP2;ratioP2;P2;SDS_P1;SDS_P2;PMS_P1;PMS_P2;Temp;Humidity;BMP_temperature;BMP_pressure;BME280_temperature;BME280_humidity;BME280_pressure;Samples;Min_cycle;Max_cycle;Signal;HPM_P1;HPM_P2
2021/12/24 00:01:09;;;;;;;382.75;41.45;;;;;;;;;;5076828;28;20119;-61
2021/12/24 00:03:35;;;;;;;287.52;33.00;;;;;;;;;;5075917;28;20052;-61
2021/12/24 00:06:02;;;;;;;200.60;32.22;;;;;;;;;;5077944;28;20442;-61
2021/12/24 00:08:28;;;;;;;171.95;35.00;;;;;;;;;;5077362;28;20123;-61
2021/12/24 00:11:01;;;;;;;180.52;36.20;;;;;;;;;;5074321;28;20036;-61
2021/12/24 00:13:29;;;;;;;221.70;37.37;;;;;;;;;;5073670;28;20393;-61
2021/12/24 00:16:05;;;;;;;213.65;38.15;;;;;;;;;;5075767;28;20040;-61
2021/12/24 00:22:07;;;;;;;250.80;41.85;;;;;;;;;;5072139;28;20093;-61
2021/12/24 00:35:10;;;;;;;386.23;47.28;;;;;;;;;;5078772;28;20080;-61
2021/12/24 00:37:37;;;;;;;342.13;43.95;;;;;;;;;;5091122;28;20059;-61
2021/12/24 00:40:13;;;;;;;356.73;43.78;;;;;;;;;;5086429;28;20087;-61
2021/12/24 00:42:43;;;;;;;355.42;43.10;;;;;;;;;;5074466;28;20454;-61
2021/12/24 00:45:10;;;;;;;255.13;38.63;;;;;;;;;;5082973;28;20047;-61
2021/12/24 00:47:36;;;;;;;232.80;36.65;;;;;;;;;;5077832;28;20529;-61
2021/12/24 00:50:07;;;;;;;250.40;39.03;;;;;;;;;;5080772;28;20467;-61
2021/12/24 00:52:46;;;;;;;212.10;38.17;;;;;;;;;;5073827;28;20093;-61
2021/12/24 00:55:13;;;;;;;261.42;39.80;;;;;;;;;;5072653;28;20037;-61
2021/12/24 00:57:40;;;;;;;312.02;41.08;;;;;;;;;;5073775;28;20044;-61
2021/12/24 01:00:10;;;;;;;174.80;33.75;;;;;;;;;;5077533;28;20140;-61
2021/12/24 01:02:36;;;;;;;239.57;36.25;;;;;;;;;;5077937;28;20105;-61
2021/12/24 01:05:03;;;;;;;206.50;34.78;;;;;;;;;;5074952;28;20036;-61
2021/12/24 01:07:29;;;;;;;194.48;34.42;;;;;;;;;;5079547;28;20048;-61
2021/12/24 01:09:55;;;;;;;196.95;33.38;;;;;;;;;;5075598;28;20395;-61
2021/12/24 01:12:23;;;;;;;157.00;30.45;;;;;;;;;;5077199;28;20074;-61
2021/12/24 01:14:49;;;;;;;204.75;33.70;;;;;;;;;;5073697;28;20044;-61
2021/12/24 01:17:35;;;;;;;133.80;28.60;;;;;;;;;;5077517;28;20059;-61
2021/12/24 01:20:08;;;;;;;147.55;29.95;;;;;;;;;;5072869;28;20122;-61
2021/12/24 01:25:23;;;;;;;96.00;24.45;;;;;;;;;;5077522;28;20053;-61
2021/12/24 01:28:14;;;;;;;126.88;28.48;;;;;;;;;;5082908;28;20065;-61
2021/12/24 01:39:05;;;;;;;114.47;25.02;;;;;;;;;;5084176;28;20052;-61
2021/12/24 01:44:23;;;;;;;70.93;22.02;;;;;;;;;;5075228;28;20044;-61
2021/12/24 01:46:49;;;;;;;79.85;21.40;;;;;;;;;;5078815;28;20379;-61
2021/12/24 01:49:15;;;;;;;89.40;24.77;;;;;;;;;;5079401;28;21875;-60
2021/12/24 01:51:41;;;;;;;67.97;23.02;;;;;;;;;;5078137;28;20036;-61
2021/12/24 01:54:10;;;;;;;69.85;22.80;;;;;;;;;;5076282;28;20398;-61
2021/12/24 01:56:37;;;;;;;105.80;26.45;;;;;;;;;;5078464;28;20504;-61
2021/12/24 01:59:03;;;;;;;88.55;24.75;;;;;;;;;;5074505;28;20138;-61
2021/12/24 02:01:29;;;;;;;101.47;27.23;;;;;;;;;;5081156;28;20205;-61
2021/12/24 02:03:55;;;;;;;105.80;29.15;;;;;;;;;;5078246;28;20037;-61
2021/12/24 02:06:21;;;;;;;106.70;28.80;;;;;;;;;;5081098;28;20040;-61
2021/12/24 02:08:48;;;;;;;100.32;29.75;;;;;;;;;;5084344;28;20449;-61
2021/12/24 02:11:14;;;;;;;108.10;30.15;;;;;;;;;;5075724;28;20373;-61
2021/12/24 02:13:40;;;;;;;100.57;31.25;;;;;;;;;;5079234;28;20049;-61
2021/12/24 02:16:18;;;;;;;107.82;30.58;;;;;;;;;;5081842;28;20048;-61
2021/12/24 02:29:49;;;;;;;108.43;28.38;;;;;;;;;;5082665;28;20044;-61
2021/12/24 02:32:15;;;;;;;111.18;29.17;;;;;;;;;;5086480;28;20115;-61
2021/12/24 02:34:41;;;;;;;124.70;28.92;;;;;;;;;;5080447;28;20040;-61
2021/12/24 02:37:07;;;;;;;140.10;32.15;;;;;;;;;;5089715;28;20502;-61
2021/12/24 02:39:34;;;;;;;125.47;29.92;;;;;;;;;;5084914;28;20048;-61
2021/12/24 02:42:10;;;;;;;126.13;29.15;;;;;;;;;;5082953;28;20047;-61
2021/12/24 02:44:37;;;;;;;103.70;25.52;;;;;;;;;;5079387;28;20119;-61
2021/12/24 02:47:11;;;;;;;112.05;26.77;;;;;;;;;;5075423;28;20534;-61
2021/12/24 02:53:56;;;;;;;;;;;;;;;;;;5080434;28;20056;-61
2021/12/24 02:55:10;;;;;;;135.05;30.08;;;;;;;;;;5082331;28;20040;-61
2021/12/24 02:57:38;;;;;;;146.10;32.72;;;;;;;;;;5082189;28;20047;-61
2021/12/24 03:00:13;;;;;;;161.57;32.67;;;;;;;;;;5083068;28;20167;-61
2021/12/24 03:02:39;;;;;;;174.85;34.38;;;;;;;;;;5084102;28;20064;-61
2021/12/24 03:05:06;;;;;;;159.55;32.60;;;;;;;;;;5082662;28;20055;-61
2021/12/24 03:07:32;;;;;;;204.80;35.42;;;;;;;;;;5077884;28;20128;-61
2021/12/24 03:09:59;;;;;;;202.38;37.03;;;;;;;;;;5079608;28;20047;-61
2021/12/24 03:12:26;;;;;;;171.75;33.58;;;;;;;;;;5081899;28;20101;-61
2021/12/24 03:14:52;;;;;;;135.90;30.80;;;;;;;;;;5078273;28;20097;-61
2021/12/24 03:17:22;;;;;;;175.98;36.03;;;;;;;;;;5075717;28;20185;-61
2021/12/24 03:19:49;;;;;;;155.95;32.90;;;;;;;;;;5080869;28;20043;-61
2021/12/24 03:22:36;;;;;;;159.55;33.05;;;;;;;;;;5081734;28;20059;-61
2021/12/24 03:25:02;;;;;;;155.88;34.75;;;;;;;;;;5076597;28;20043;-61
2021/12/24 03:27:28;;;;;;;168.77;36.42;;;;;;;;;;5075530;28;20043;-61
2021/12/24 03:29:55;;;;;;;164.18;34.05;;;;;;;;;;5079463;28;20391;-61
2021/12/24 03:32:22;;;;;;;165.07;36.28;;;;;;;;;;5082869;28;20044;-62
2021/12/24 03:34:48;;;;;;;166.05;35.78;;;;;;;;;;5078066;28;20115;-61
2021/12/24 03:37:14;;;;;;;159.23;34.17;;;;;;;;;;5094007;27;20157;-61
2021/12/24 03:39:40;;;;;;;167.10;37.47;;;;;;;;;;5078003;28;20395;-61
2021/12/24 03:42:07;;;;;;;155.77;36.55;;;;;;;;;;5083544;28;20181;-61
2021/12/24 03:44:42;;;;;;;171.32;40.42;;;;;;;;;;5087884;28;20043;-61
2021/12/24 03:47:13;;;;;;;164.00;40.92;;;;;;;;;;5082144;28;20175;-61
2021/12/24 03:49:53;;;;;;;163.63;39.78;;;;;;;;;;5086348;28;20395;-61
2021/12/24 03:54:57;;;;;;;171.02;40.30;;;;;;;;;;5084947;28;20051;-61
2021/12/24 03:57:25;;;;;;;160.57;41.38;;;;;;;;;;5087598;28;20048;-61
2021/12/24 03:59:51;;;;;;;190.13;43.00;;;;;;;;;;5080741;28;20040;-61
2021/12/24 04:02:18;;;;;;;190.32;46.25;;;;;;;;;;5081338;28;20040;-61
2021/12/24 04:04:44;;;;;;;173.13;46.05;;;;;;;;;;5082654;28;20040;-61
2021/12/24 04:07:10;;;;;;;171.57;44.13;;;;;;;;;;5077763;28;20094;-61
2021/12/24 04:09:39;;;;;;;171.65;44.53;;;;;;;;;;5084695;28;20047;-61
2021/12/24 04:12:05;;;;;;;139.30;40.10;;;;;;;;;;5083431;28;20346;-61
2021/12/24 04:14:31;;;;;;;164.25;43.88;;;;;;;;;;5079809;28;20044;-61
2021/12/24 04:16:57;;;;;;;157.60;45.13;;;;;;;;;;5076919;28;20047;-61
2021/12/24 04:24:50;;;;;;;140.18;41.30;;;;;;;;;;5085218;28;20036;-61
2021/12/24 04:24:56;;;;;;;145.77;43.72;;;;;;;;;;5082616;28;20525;-61
2021/12/24 04:27:24;;;;;;;129.32;41.97;;;;;;;;;;5082417;28;20100;-61
2021/12/24 04:29:53;;;;;;;166.80;48.40;;;;;;;;;;5079463;28;20047;-62
2021/12/24 04:32:24;;;;;;;180.45;49.00;;;;;;;;;;5082058;28;20050;-61
2021/12/24 04:34:52;;;;;;;145.40;44.00;;;;;;;;;;5089314;27;20392;-61
2021/12/24 04:38:02;;;;;;;168.80;47.20;;;;;;;;;;5077802;28;20116;-61
2021/12/24 04:51:37;;;;;;;124.07;39.40;;;;;;;;;;5083045;28;20043;-61
2021/12/24 05:04:51;;;;;;;100.60;31.80;;;;;;;;;;5077818;28;20048;-61
2021/12/24 05:08:14;;;;;;;103.30;30.15;;;;;;;;;;5078793;28;20851;-61
2021/12/24 05:10:24;;;;;;;101.70;32.30;;;;;;;;;;5081939;28;20146;-62
2021/12/24 05:12:50;;;;;;;105.25;31.30;;;;;;;;;;5080307;28;20454;-61
2021/12/24 05:15:18;;;;;;;80.32;26.02;;;;;;;;;;5076659;28;20400;-61
2021/12/24 05:18:02;;;;;;;77.55;25.05;;;;;;;;;;5083488;28;20052;-61
2021/12/24 05:23:13;;;;;;;91.43;25.30;;;;;;;;;;5078803;28;20500;-61
2021/12/24 05:25:42;;;;;;;79.88;24.50;;;;;;;;;;5075317;28;20071;-61
2021/12/24 05:28:09;;;;;;;83.50;22.23;;;;;;;;;;5074474;28;20450;-61
2021/12/24 05:30:35;;;;;;;68.07;21.70;;;;;;;;;;5073480;28;20113;-61
2021/12/24 05:33:01;;;;;;;69.82;19.48;;;;;;;;;;5083425;28;20047;-61
2021/12/24 05:35:27;;;;;;;69.65;20.75;;;;;;;;;;5079861;28;20445;-61
2021/12/24 05:37:53;;;;;;;81.72;21.17;;;;;;;;;;5080548;28;20060;-61
2021/12/24 05:40:20;;;;;;;76.55;19.98;;;;;;;;;;5078094;28;20047;-61
2021/12/24 05:42:46;;;;;;;60.00;18.10;;;;;;;;;;5080475;28;20044;-61
2021/12/24 05:45:12;;;;;;;70.22;18.88;;;;;;;;;;5080649;28;20396;-61
2021/12/24 05:47:38;;;;;;;71.97;18.20;;;;;;;;;;5084400;28;20400;-61
2021/12/24 05:50:05;;;;;;;62.92;16.17;;;;;;;;;;5076867;28;20052;-61
2021/12/24 05:52:32;;;;;;;75.72;17.42;;;;;;;;;;5080671;28;20052;-61
2021/12/24 05:54:58;;;;;;;59.95;17.90;;;;;;;;;;5085290;28;20039;-61
2021/12/24 05:57:27;;;;;;;78.82;18.55;;;;;;;;;;5088036;28;20044;-61
2021/12/24 05:59:53;;;;;;;57.00;16.80;;;;;;;;;;5089620;28;20483;-61
2021/12/24 06:02:19;;;;;;;65.40;17.70;;;;;;;;;;5088407;28;20051;-61
2021/12/24 06:04:45;;;;;;;72.45;18.45;;;;;;;;;;5083400;28;20036;-61
2021/12/24 06:07:11;;;;;;;77.07;19.58;;;;;;;;;;5087571;28;20131;-61
2021/12/24 06:09:37;;;;;;;79.60;18.25;;;;;;;;;;5087446;28;20492;-61
2021/12/24 06:12:03;;;;;;;56.33;17.35;;;;;;;;;;5083684;28;20032;-61
2021/12/24 06:14:30;;;;;;;70.28;18.20;;;;;;;;;;5087085;28;20063;-61
2021/12/24 06:17:02;;;;;;;65.45;17.67;;;;;;;;;;5081390;28;20079;-61
2021/12/24 06:19:29;;;;;;;73.63;17.65;;;;;;;;;;5085399;28;20131;-61
2021/12/24 06:21:55;;;;;;;71.60;17.98;;;;;;;;;;5081516;28;20369;-61
2021/12/24 06:24:21;;;;;;;62.15;17.88;;;;;;;;;;5084392;28;20440;-61
2021/12/24 06:26:48;;;;;;;84.82;22.90;;;;;;;;;;5082652;28;20506;-61
2021/12/24 06:29:15;;;;;;;52.40;16.15;;;;;;;;;;5084822;28;20055;-61
2021/12/24 06:31:41;;;;;;;58.40;17.63;;;;;;;;;;5079212;28;20434;-62
2021/12/24 06:34:07;;;;;;;67.60;18.40;;;;;;;;;;5084862;28;20036;-61
2021/12/24 06:36:37;;;;;;;63.45;16.90;;;;;;;;;;5085339;28;20070;-61
2021/12/24 06:39:05;;;;;;;75.78;19.08;;;;;;;;;;5084130;28;20040;-61
2021/12/24 06:41:31;;;;;;;60.53;17.77;;;;;;;;;;5088421;28;20040;-61
2021/12/24 06:43:57;;;;;;;59.20;17.35;;;;;;;;;;5088526;28;20040;-61
2021/12/24 06:46:23;;;;;;;69.25;18.92;;;;;;;;;;5085688;28;20763;-61
2021/12/24 06:48:56;;;;;;;63.40;18.83;;;;;;;;;;5081937;28;20524;-61
2021/12/24 06:51:22;;;;;;;51.40;16.23;;;;;;;;;;5078806;28;20044;-61
2021/12/24 06:53:49;;;;;;;65.45;18.63;;;;;;;;;;5085420;28;20043;-61
2021/12/24 06:56:15;;;;;;;62.65;16.80;;;;;;;;;;5081355;28;20028;-62
2021/12/24 06:58:41;;;;;;;60.38;17.92;;;;;;;;;;5080382;28;20075;-61
2021/12/24 07:01:07;;;;;;;63.38;18.17;;;;;;;;;;5077131;28;20048;-61
2021/12/24 07:03:33;;;;;;;58.80;17.42;;;;;;;;;;5085644;28;20101;-61
2021/12/24 07:06:00;;;;;;;59.97;17.27;;;;;;;;;;5078602;28;20400;-61
2021/12/24 07:08:26;;;;;;;63.47;16.08;;;;;;;;;;5085435;28;20510;-61
2021/12/24 07:10:52;;;;;;;55.67;15.75;;;;;;;;;;5095426;28;20051;-61
2021/12/24 07:13:19;;;;;;;62.05;14.73;;;;;;;;;;5076780;28;20187;-61
2021/12/24 07:15:45;;;;;;;52.00;14.07;;;;;;;;;;5083554;28;20040;-61
2021/12/24 07:18:11;;;;;;;52.22;14.90;;;;;;;;;;5077832;28;20348;-61
2021/12/24 07:20:37;;;;;;;52.55;14.20;;;;;;;;;;5078865;28;20035;-61
2021/12/24 07:23:04;;;;;;;54.42;13.52;;;;;;;;;;5084395;28;20036;-61
2021/12/24 07:25:30;;;;;;;62.70;15.25;;;;;;;;;;5078907;28;20040;-61
2021/12/24 07:27:56;;;;;;;55.47;13.75;;;;;;;;;;5077707;28;20082;-61
2021/12/24 07:30:23;;;;;;;54.13;13.55;;;;;;;;;;5082677;28;20509;-61
2021/12/24 07:32:49;;;;;;;61.88;14.73;;;;;;;;;;5080378;28;20130;-61
2021/12/24 07:35:16;;;;;;;48.28;13.23;;;;;;;;;;5076687;28;20087;-61
2021/12/24 07:37:43;;;;;;;56.17;14.70;;;;;;;;;;5080482;28;20044;-61
2021/12/24 07:40:10;;;;;;;43.80;12.90;;;;;;;;;;5084144;28;20040;-61
2021/12/24 07:42:38;;;;;;;44.85;13.30;;;;;;;;;;5082100;28;20048;-61
2021/12/24 07:45:05;;;;;;;53.63;14.50;;;;;;;;;;5082438;28;20048;-61
2021/12/24 07:47:36;;;;;;;55.72;13.52;;;;;;;;;;5080016;28;20139;-61
2021/12/24 07:50:16;;;;;;;74.38;15.00;;;;;;;;;;5079237;28;20487;-62
2021/12/24 07:52:43;;;;;;;55.22;16.30;;;;;;;;;;5080295;28;20469;-63
2021/12/24 07:55:10;;;;;;;56.42;15.25;;;;;;;;;;5075473;28;20520;-62
2021/12/24 07:57:37;;;;;;;57.08;15.93;;;;;;;;;;5088004;28;20052;-62
2021/12/24 08:00:05;;;;;;;47.47;13.70;;;;;;;;;;5079254;28;20047;-62
2021/12/24 08:02:31;;;;;;;51.47;13.80;;;;;;;;;;5080176;28;20063;-62
2021/12/24 08:04:58;;;;;;;66.65;13.85;;;;;;;;;;5078739;28;20044;-62
2021/12/24 08:07:24;;;;;;;60.92;14.93;;;;;;;;;;5076126;28;20047;-61
2021/12/24 08:09:51;;;;;;;60.00;12.52;;;;;;;;;;5077665;28;22025;-62
2021/12/24 08:12:18;;;;;;;56.40;13.50;;;;;;;;;;5080699;28;20040;-63
2021/12/24 08:14:45;;;;;;;48.72;14.43;;;;;;;;;;5084847;28;20150;-62
2021/12/24 08:17:12;;;;;;;32.88;11.85;;;;;;;;;;5080178;28;20044;-62
2021/12/24 08:19:38;;;;;;;59.80;11.65;;;;;;;;;;5077313;28;20807;-62
2021/12/24 08:22:05;;;;;;;54.35;11.50;;;;;;;;;;5079313;28;20044;-62
2021/12/24 08:24:32;;;;;;;49.85;12.23;;;;;;;;;;5083317;28;20108;-62
2021/12/24 08:26:58;;;;;;;51.35;12.60;;;;;;;;;;5076156;28;20437;-62
2021/12/24 08:29:26;;;;;;;58.78;14.13;;;;;;;;;;5081702;28;20119;-62
2021/12/24 08:31:53;;;;;;;56.80;13.85;;;;;;;;;;5078683;28;20039;-63
2021/12/24 08:34:19;;;;;;;38.35;12.18;;;;;;;;;;5082298;28;20126;-62
2021/12/24 08:36:46;;;;;;;55.72;13.00;;;;;;;;;;5076889;28;20036;-62
2021/12/24 08:39:13;;;;;;;38.20;12.25;;;;;;;;;;5072270;28;20071;-62
2021/12/24 08:41:39;;;;;;;41.97;12.07;;;;;;;;;;5076425;28;20094;-62
2021/12/24 08:44:06;;;;;;;47.83;11.50;;;;;;;;;;5078505;28;20137;-62
2021/12/24 08:46:33;;;;;;;37.42;11.23;;;;;;;;;;5079223;28;20416;-62
2021/12/24 08:48:59;;;;;;;30.83;10.45;;;;;;;;;;5078705;28;20044;-62
2021/12/24 08:51:25;;;;;;;31.27;9.38;;;;;;;;;;5071553;28;20075;-62
2021/12/24 08:53:51;;;;;;;35.47;11.65;;;;;;;;;;5079329;28;20045;-62
2021/12/24 08:56:18;;;;;;;33.85;8.82;;;;;;;;;;5084061;28;20169;-62
2021/12/24 08:58:44;;;;;;;29.67;9.30;;;;;;;;;;5076224;28;20507;-62
2021/12/24 09:01:10;;;;;;;33.15;8.85;;;;;;;;;;5077513;28;20036;-63
2021/12/24 09:03:36;;;;;;;29.65;9.43;;;;;;;;;;5079400;28;20099;-62
2021/12/24 09:06:02;;;;;;;21.80;7.00;;;;;;;;;;5076351;28;20043;-62
2021/12/24 09:08:28;;;;;;;22.42;7.47;;;;;;;;;;5076380;28;20130;-62
2021/12/24 09:10:55;;;;;;;19.83;7.00;;;;;;;;;;5076411;28;20060;-64
2021/12/24 09:13:21;;;;;;;14.07;6.68;;;;;;;;;;5077447;28;20040;-64
2021/12/24 09:15:47;;;;;;;17.35;6.85;;;;;;;;;;5074594;28;20183;-64
2021/12/24 09:18:13;;;;;;;15.90;7.25;;;;;;;;;;5079099;28;20048;-64
2021/12/24 09:20:43;;;;;;;12.32;6.18;;;;;;;;;;5075782;28;20036;-63
2021/12/24 09:23:10;;;;;;;11.43;6.75;;;;;;;;;;5077314;28;20515;-63
2021/12/24 09:25:36;;;;;;;18.17;6.93;;;;;;;;;;5076413;28;20140;-62
2021/12/24 09:28:03;;;;;;;14.02;7.10;;;;;;;;;;5075394;28;20036;-62
2021/12/24 09:30:30;;;;;;;16.58;7.80;;;;;;;;;;5089189;28;20129;-76
2021/12/24 09:32:56;;;;;;;11.23;4.95;;;;;;;;;;5075945;28;20060;-64
2021/12/24 09:35:24;;;;;;;5.65;2.55;;;;;;;;;;5076612;28;20037;-61
2021/12/24 09:37:50;;;;;;;7.07;3.58;;;;;;;;;;5079419;28;20554;-61
2021/12/24 09:40:18;;;;;;;9.20;3.70;;;;;;;;;;5076887;28;20085;-61
2021/12/24 09:42:44;;;;;;;6.30;3.40;;;;;;;;;;5077698;28;20554;-61
2021/12/24 09:45:12;;;;;;;8.00;3.15;;;;;;;;;;5085161;28;20047;-61
2021/12/24 09:47:38;;;;;;;7.15;3.40;;;;;;;;;;5080377;28;20048;-61
2021/12/24 09:50:06;;;;;;;7.10;2.95;;;;;;;;;;5082641;28;20043;-61
2021/12/24 09:52:33;;;;;;;7.22;2.80;;;;;;;;;;5073805;28;20080;-61
2021/12/24 09:55:06;;;;;;;7.07;3.03;;;;;;;;;;5078192;28;20072;-61
2021/12/24 09:57:33;;;;;;;6.03;2.60;;;;;;;;;;5079214;28;20090;-61
2021/12/24 09:59:59;;;;;;;6.93;2.95;;;;;;;;;;5075862;28;20040;-61
2021/12/24 10:02:28;;;;;;;5.50;2.55;;;;;;;;;;5078526;28;20048;-60
2021/12/24 10:04:54;;;;;;;5.68;2.50;;;;;;;;;;5079957;28;20491;-61
2021/12/24 10:07:24;;;;;;;6.05;2.28;;;;;;;;;;5074161;28;20040;-61
2021/12/24 10:09:51;;;;;;;6.82;2.67;;;;;;;;;;5079628;28;20036;-61
2021/12/24 10:12:18;;;;;;;5.45;2.63;;;;;;;;;;5072542;28;20076;-60
2021/12/24 10:14:52;;;;;;;9.45;3.20;;;;;;;;;;5088214;28;20046;-60
2021/12/24 10:17:19;;;;;;;5.70;2.97;;;;;;;;;;5093203;28;20046;-61
2021/12/24 10:19:48;;;;;;;9.80;4.18;;;;;;;;;;5084249;28;20055;-61
2021/12/24 10:22:14;;;;;;;5.38;2.70;;;;;;;;;;5081678;28;20076;-61
2021/12/24 10:24:40;;;;;;;6.82;2.92;;;;;;;;;;5086738;28;20047;-61
2021/12/24 10:27:07;;;;;;;7.70;3.25;;;;;;;;;;5087775;28;20356;-61
2021/12/24 10:29:34;;;;;;;5.50;2.70;;;;;;;;;;5088104;28;20068;-61
2021/12/24 10:32:09;;;;;;;5.93;2.47;;;;;;;;;;5086499;28;20036;-61
2021/12/24 10:34:36;;;;;;;5.43;2.83;;;;;;;;;;5083374;28;20063;-61
2021/12/24 10:37:05;;;;;;;8.10;2.97;;;;;;;;;;5091208;28;20044;-61
2021/12/24 10:39:33;;;;;;;6.22;3.20;;;;;;;;;;5092644;28;20222;-61
2021/12/24 10:42:01;;;;;;;10.32;3.42;;;;;;;;;;5088457;28;20130;-61
2021/12/24 10:44:30;;;;;;;7.22;4.10;;;;;;;;;;5087763;28;20040;-61
2021/12/24 10:46:59;;;;;;;6.47;4.07;;;;;;;;;;5097286;28;20309;-61
2021/12/24 10:52:15;;;;;;;7.20;4.60;;;;;;;;;;5096184;28;20051;-60
2021/12/24 10:54:53;;;;;;;9.18;4.43;;;;;;;;;;5096694;28;20111;-61
2021/12/24 10:57:20;;;;;;;8.88;4.78;;;;;;;;;;5085888;28;20513;-61
2021/12/24 10:59:49;;;;;;;8.82;4.88;;;;;;;;;;5095264;28;20047;-61
2021/12/24 11:02:15;;;;;;;9.90;4.70;;;;;;;;;;5097017;28;20066;-61
2021/12/24 11:04:42;;;;;;;10.50;5.68;;;;;;;;;;5097543;28;20042;-61
2021/12/24 11:07:31;;;;;;;8.63;5.15;;;;;;;;;;5082918;28;20040;-61
2021/12/24 11:10:05;;;;;;;8.60;4.78;;;;;;;;;;5082243;28;20154;-61
2021/12/24 11:12:31;;;;;;;;;;;;;;;;;;5102395;28;20096;-61
2021/12/24 11:15:00;;;;;;;8.80;4.97;;;;;;;;;;5096795;28;19920;-61
2021/12/24 11:17:38;;;;;;;8.77;4.72;;;;;;;;;;5091614;28;20051;-61
2021/12/24 11:20:10;;;;;;;8.95;5.07;;;;;;;;;;5088433;28;20044;-61
2021/12/24 11:22:50;;;;;;;7.93;5.30;;;;;;;;;;5085243;28;20088;-61
2021/12/24 11:25:16;;;;;;;8.52;5.03;;;;;;;;;;5091185;28;20098;-61
2021/12/24 11:27:42;;;;;;;10.27;4.80;;;;;;;;;;5096442;28;20119;-61
2021/12/24 11:30:08;;;;;;;9.43;4.80;;;;;;;;;;5093353;28;20055;-61
2021/12/24 11:32:36;;;;;;;10.10;4.90;;;;;;;;;;5088091;28;20048;-62
2021/12/24 11:35:02;;;;;;;9.73;5.20;;;;;;;;;;5089636;28;20040;-61
2021/12/24 11:37:29;;;;;;;8.63;5.32;;;;;;;;;;5092580;28;20395;-61
2021/12/24 11:39:56;;;;;;;10.50;5.28;;;;;;;;;;5098497;28;20044;-61
2021/12/24 11:42:22;;;;;;;13.00;5.25;;;;;;;;;;5089931;28;20487;-62
2021/12/24 11:44:49;;;;;;;10.13;5.28;;;;;;;;;;5089237;28;20050;-62
2021/12/24 11:47:15;;;;;;;7.68;4.70;;;;;;;;;;5086520;28;20055;-62
2021/12/24 11:49:42;;;;;;;13.23;5.35;;;;;;;;;;5087841;28;20097;-62
2021/12/24 11:52:08;;;;;;;11.35;5.35;;;;;;;;;;5096942;28;20441;-62
2021/12/24 11:54:35;;;;;;;11.60;5.03;;;;;;;;;;5086048;28;20489;-61
2021/12/24 11:57:01;;;;;;;10.48;5.13;;;;;;;;;;5090134;28;20063;-61
2021/12/24 11:59:35;;;;;;;11.98;5.10;;;;;;;;;;5087890;28;20052;-62
2021/12/24 12:02:01;;;;;;;10.55;4.68;;;;;;;;;;5081581;28;20048;-62
2021/12/24 12:04:27;;;;;;;9.80;4.50;;;;;;;;;;5098911;28;20169;-61
2021/12/24 12:07:10;;;;;;;8.45;4.88;;;;;;;;;;5080055;28;20052;-61
2021/12/24 12:09:40;;;;;;;14.90;5.28;;;;;;;;;;5089271;28;20036;-61
2021/12/24 12:12:09;;;;;;;11.18;4.93;;;;;;;;;;5095525;28;21552;-62
2021/12/24 12:14:37;;;;;;;9.60;4.97;;;;;;;;;;5087892;28;20041;-61
2021/12/24 12:17:06;;;;;;;12.48;5.43;;;;;;;;;;5083336;28;20058;-62
2021/12/24 12:22:13;;;;;;;10.25;5.10;;;;;;;;;;5078785;28;20044;-62
2021/12/24 12:24:57;;;;;;;9.27;4.40;;;;;;;;;;5084638;28;20144;-62
2021/12/24 12:27:43;;;;;;;7.60;4.13;;;;;;;;;;5086137;28;20185;-62
2021/12/24 12:30:26;;;;;;;7.72;4.05;;;;;;;;;;5083408;28;20098;-63
2021/12/24 12:32:54;;;;;;;12.27;4.25;;;;;;;;;;5086468;28;20032;-67
2021/12/24 12:35:33;;;;;;;8.02;3.35;;;;;;;;;;5087425;28;20040;-62
2021/12/24 12:37:59;;;;;;;4.07;2.80;;;;;;;;;;5085904;28;20310;-68
2021/12/24 12:40:30;;;;;;;8.05;2.90;;;;;;;;;;5083745;28;20043;-61
2021/12/24 12:43:05;;;;;;;5.38;2.97;;;;;;;;;;5081731;28;20040;-61
2021/12/24 12:45:35;;;;;;;5.72;2.63;;;;;;;;;;5088689;28;20368;-61
2021/12/24 12:48:03;;;;;;;3.97;1.88;;;;;;;;;;5090043;28;20444;-61
2021/12/24 12:50:30;;;;;;;5.30;2.13;;;;;;;;;;5089793;28;20036;-61
2021/12/24 12:53:28;;;;;;;6.32;2.08;;;;;;;;;;5082733;28;20249;-61
2021/12/24 12:56:27;;;;;;;9.25;2.40;;;;;;;;;;5085446;28;20044;-61
2021/12/24 12:58:58;;;;;;;6.00;1.65;;;;;;;;;;5084780;28;20117;-61
2021/12/24 13:01:24;;;;;;;4.75;2.10;;;;;;;;;;5085731;28;20403;-62
2021/12/24 13:03:56;;;;;;;7.32;2.20;;;;;;;;;;5085186;28;20032;-61
2021/12/24 13:06:23;;;;;;;7.60;1.90;;;;;;;;;;5089792;28;20055;-61
2021/12/24 13:08:50;;;;;;;6.75;1.45;;;;;;;;;;5086577;28;20384;-61
2021/12/24 13:11:17;;;;;;;3.47;1.38;;;;;;;;;;5088565;28;20417;-61
2021/12/24 13:13:54;;;;;;;3.70;1.23;;;;;;;;;;5086302;28;20040;-62
2021/12/24 13:16:23;;;;;;;3.88;1.00;;;;;;;;;;5090114;28;20040;-61
2021/12/24 13:18:54;;;;;;;6.10;1.33;;;;;;;;;;5095346;28;20428;-61
2021/12/24 13:24:09;;;;;;;4.57;1.00;;;;;;;;;;5098458;28;20044;-62
2021/12/24 13:26:36;;;;;;;2.80;1.40;;;;;;;;;;5095252;28;20048;-61
2021/12/24 13:29:03;;;;;;;3.13;1.10;;;;;;;;;;5088112;28;20075;-62
2021/12/24 13:31:31;;;;;;;6.90;0.90;;;;;;;;;;5089532;28;20119;-61
2021/12/24 13:33:58;;;;;;;2.72;0.60;;;;;;;;;;5092600;28;20506;-61
2021/12/24 13:36:26;;;;;;;3.03;0.85;;;;;;;;;;5092618;28;20492;-61
2021/12/24 13:38:53;;;;;;;2.25;0.80;;;;;;;;;;5097516;28;20436;-62
2021/12/24 13:41:24;;;;;;;6.75;0.95;;;;;;;;;;5096644;28;20028;-61
2021/12/24 13:43:50;;;;;;;5.43;0.80;;;;;;;;;;5093969;28;20043;-62
2021/12/24 13:46:16;;;;;;;4.43;0.90;;;;;;;;;;5093507;28;20140;-62
2021/12/24 13:49:08;;;;;;;3.17;0.80;;;;;;;;;;5091305;28;20067;-61
2021/12/24 13:54:32;;;;;;;4.00;0.90;;;;;;;;;;5081538;28;20483;-61
2021/12/24 13:56:58;;;;;;;3.42;0.90;;;;;;;;;;5085736;28;20094;-62
2021/12/24 13:59:25;;;;;;;3.45;0.90;;;;;;;;;;5088750;28;20043;-62
2021/12/24 14:01:51;;;;;;;6.25;0.93;;;;;;;;;;5089760;28;20048;-61
2021/12/24 14:04:19;;;;;;;2.70;0.95;;;;;;;;;;5095417;28;20048;-61
2021/12/24 14:06:48;;;;;;;7.35;0.93;;;;;;;;;;5090299;28;20411;-61
2021/12/24 14:09:16;;;;;;;7.10;0.80;;;;;;;;;;5087501;28;20039;-61
2021/12/24 14:11:43;;;;;;;4.28;0.80;;;;;;;;;;5090942;28;20051;-62
2021/12/24 14:14:15;;;;;;;5.55;0.77;;;;;;;;;;5091249;28;20052;-61
2021/12/24 14:16:59;;;;;;;4.07;1.20;;;;;;;;;;5091624;28;20047;-62
2021/12/24 14:19:33;;;;;;;5.85;0.90;;;;;;;;;;5089445;28;20222;-62
2021/12/24 14:22:06;;;;;;;5.38;0.88;;;;;;;;;;5090841;28;20088;-61
2021/12/24 14:24:36;;;;;;;2.35;0.75;;;;;;;;;;5088092;28;20036;-62
2021/12/24 14:27:09;;;;;;;2.85;0.50;;;;;;;;;;5092602;28;20071;-62
2021/12/24 14:29:38;;;;;;;1.38;0.50;;;;;;;;;;5088839;28;20454;-62
2021/12/24 14:32:07;;;;;;;8.60;0.80;;;;;;;;;;5096786;28;20120;-63
2021/12/24 14:34:47;;;;;;;3.83;0.57;;;;;;;;;;5088856;28;20477;-62
2021/12/24 14:37:18;;;;;;;9.02;0.80;;;;;;;;;;5091005;28;20096;-61
2021/12/24 14:39:48;;;;;;;4.13;0.80;;;;;;;;;;5092462;28;20044;-61
2021/12/24 14:42:17;;;;;;;9.35;1.20;;;;;;;;;;5091486;28;20039;-66
2021/12/24 14:44:43;;;;;;;9.10;1.10;;;;;;;;;;5097010;27;20181;-61
2021/12/24 14:47:11;;;;;;;4.00;0.82;;;;;;;;;;5081619;28;20455;-61
2021/12/24 14:49:38;;;;;;;4.95;1.20;;;;;;;;;;5082329;28;20081;-62
2021/12/24 14:52:14;;;;;;;8.82;0.90;;;;;;;;;;5082578;28;20052;-61
2021/12/24 14:54:59;;;;;;;8.23;1.70;;;;;;;;;;5088194;28;20065;-62
2021/12/24 14:57:25;;;;;;;6.32;0.98;;;;;;;;;;5092301;28;20098;-62
2021/12/24 14:59:52;;;;;;;8.45;2.55;;;;;;;;;;5091206;28;21369;-62
2021/12/24 15:02:18;;;;;;;8.68;1.58;;;;;;;;;;5092198;28;20058;-62
2021/12/24 15:04:44;;;;;;;12.32;1.10;;;;;;;;;;5092860;28;20459;-62
2021/12/24 15:07:11;;;;;;;7.32;0.90;;;;;;;;;;5087433;28;20150;-64
2021/12/24 15:09:39;;;;;;;6.70;0.90;;;;;;;;;;5086366;28;20094;-62
2021/12/24 15:12:22;;;;;;;12.65;1.65;;;;;;;;;;5091485;28;20117;-62
2021/12/24 15:14:50;;;;;;;11.88;3.75;;;;;;;;;;5088371;28;20373;-63
2021/12/24 15:17:16;;;;;;;20.20;7.28;;;;;;;;;;5086207;28;20380;-62
2021/12/24 15:19:42;;;;;;;16.55;6.25;;;;;;;;;;5088341;28;20599;-60
2021/12/24 15:22:08;;;;;;;15.88;6.43;;;;;;;;;;5086410;28;20383;-61
2021/12/24 15:24:34;;;;;;;6.97;2.35;;;;;;;;;;5090130;28;20054;-62
2021/12/24 15:27:01;;;;;;;9.65;1.95;;;;;;;;;;5086291;28;20119;-63
2021/12/24 15:29:27;;;;;;;15.63;1.90;;;;;;;;;;5092077;28;20491;-61
2021/12/24 15:31:54;;;;;;;8.15;1.92;;;;;;;;;;5087606;28;20178;-61
2021/12/24 15:34:21;;;;;;;9.75;1.55;;;;;;;;;;5097346;28;20040;-62
2021/12/24 15:36:47;;;;;;;19.00;2.40;;;;;;;;;;5087265;28;20498;-61
2021/12/24 15:39:13;;;;;;;7.15;1.60;;;;;;;;;;5070378;28;20040;-61
2021/12/24 15:41:45;;;;;;;8.13;1.83;;;;;;;;;;5089569;28;20554;-61
2021/12/24 15:44:13;;;;;;;11.10;1.58;;;;;;;;;;5092634;28;20059;-62
2021/12/24 15:46:40;;;;;;;16.15;2.00;;;;;;;;;;5092849;28;20054;-61
2021/12/24 15:49:06;;;;;;;13.77;2.78;;;;;;;;;;5090087;28;20114;-66
2021/12/24 15:51:35;;;;;;;10.75;1.95;;;;;;;;;;5088014;28;20051;-61
2021/12/24 15:54:01;;;;;;;17.55;2.10;;;;;;;;;;5088972;28;20040;-61
2021/12/24 15:56:27;;;;;;;15.10;3.08;;;;;;;;;;5084930;28;20135;-61